• Join FlightAware (Why Join?)
  • Login
  • US Flag 
12:24AM EST


 

Airport Tracker/Info


-or-


 

Live Flight TrackerFlight Track Log ✈ SWA3943 ✈ 01-May-2013 ✈ KMCO - KCMH

Flight Track Log - Related Links

Times and Time Zones

All times are in EDT time to prevent confusion due to time zone crossing. See the SWA3943 flight status page for this flight to view local times or setup timezone preferences in your user account.

Time Position Orientation Groundspeed Altitude Reporting Facility
EDT Latitude Longitude Course Direction KTS MPH feet Rate Location/Type
06:07PM 28.4167 -81.3000 350° North 178 205 500  Level Orlando TRACON
06:08PM 28.3833 -81.2833 156° South 198 228 1,800 2,640 Climbing Orlando TRACON
06:09PM 28.3500 -81.2000 114° Southeast 252 290 5,300 2,940 Climbing Orlando TRACON
06:10PM 28.4000 -81.1500 41° Northeast 289 333 8,000 2,880 Climbing Orlando TRACON
06:12PM 28.5247 -81.1914 344° North 311 358 12,700 2,820 Climbing Jacksonville Center
06:13PM 28.8536 -81.3541 350° North  Level FlightAware Approximate
06:13PM 28.6044 -81.2208 342° North 311 358 15,400  Level Jacksonville Center
06:14PM 28.6925 -81.2572 340° North 317 365 17,200 1,740 Climbing Jacksonville Center
06:15PM 28.7850 -81.2983 339° North 334 384 18,900 1,320 Climbing Jacksonville Center
06:16PM 28.8856 -81.3369 341° North 361 415 19,900 1,440 Climbing Jacksonville Center
06:17PM 28.9967 -81.3828 340° North 396 456 21,800 1,560 Climbing Jacksonville Center
06:18PM 29.1078 -81.4308 339° North 415 478 23,100 1,500 Climbing Jacksonville Center
06:19PM 29.2339 -81.4886 338° Northwest 427 491 24,900 1,620 Climbing Jacksonville Center
06:20PM 29.3511 -81.5322 342° North 438 504 26,400 1,500 Climbing Jacksonville Center
06:21PM 29.4706 -81.5806 341° North 438 504 28,000 1,740 Climbing Jacksonville Center
06:22PM 29.5858 -81.6317 339° North 443 510 29,900 1,500 Climbing Jacksonville Center
06:23PM 29.7011 -81.6803 340° North 443 510 31,100 1,260 Climbing Jacksonville Center
06:24PM 29.8186 -81.7267 341° North 443 510 32,500 1,140 Climbing Jacksonville Center
06:25PM 29.9317 -81.7758 339° North 443 510 33,400 780 Climbing Jacksonville Center
06:26PM 30.0511 -81.8200 342° North 443 510 34,100 660 Climbing Jacksonville Center
06:27PM 30.1686 -81.8714 339° North 448 516 34,800 420 Climbing Jacksonville Center
06:28PM 30.2981 -81.8772 358° North 453 521 35,000 60 Climbing Jacksonville Center
06:29PM 30.4314 -81.8567 North 458 527 35,000  Level Jacksonville Center
06:30PM 30.5544 -81.8433 North 480 552 35,000  Level Jacksonville Center
06:31PM 30.6797 -81.8514 357° North 469 540 35,000  Level Jacksonville Center
06:32PM 30.8072 -81.8647 355° North 464 534 35,000  Level Jacksonville Center
06:33PM 30.9328 -81.8803 354° North 459 528 35,000  Level Jacksonville Center
06:34PM 31.0603 -81.8908 356° North 459 528 35,000  Level Jacksonville Center
06:35PM 31.1833 -81.9017 356° North 459 528 35,000  Level Jacksonville Center
06:36PM 31.3131 -81.9200 353° North 459 528 35,000  Level Jacksonville Center
06:37PM 31.4508 -81.9306 356° North 454 522 35,000  Level Jacksonville Center
06:38PM 31.5764 -81.9414 356° North 454 522 35,000  Level Jacksonville Center
06:39PM 31.6933 -81.9525 355° North 454 522 35,000  Level Jacksonville Center
06:40PM 31.9339 -81.9783 355° North 468 539 35,000  Level Atlanta Center
06:41PM 32.0614 -81.9925 355° North 456 525 35,000  Level Atlanta Center
06:42PM 32.1889 -82.0042 356° North 456 525 35,000  Level Atlanta Center
06:43PM 32.3122 -82.0136 356° North 449 517 35,000  Level Atlanta Center
06:44PM 32.4356 -82.0306 353° North 449 517 35,000  Level Atlanta Center
06:45PM 32.5611 -82.0450 354° North 444 511 35,000  Level Atlanta Center
06:46PM 32.6908 -82.0544 356° North 449 517 35,000  Level Atlanta Center
06:47PM 32.8161 -82.0689 354° North 449 517 35,000  Level Atlanta Center
06:48PM 32.9436 -82.0808 356° North 449 517 35,000  Level Atlanta Center
06:49PM 33.0692 -82.0931 355° North 449 517 35,000  Level Atlanta Center
06:50PM 33.1947 -82.1075 355° North 449 517 35,000  Level Atlanta Center
06:51PM 33.3200 -82.1222 354° North 449 517 35,000  Level Atlanta Center
06:52PM 33.4456 -82.1342 355° North 449 517 35,000  Level Atlanta Center
06:53PM 33.5731 -82.1464 355° North 444 511 35,000  Level Atlanta Center
06:54PM 33.6858 -82.1564 356° North 449 517 35,000  Level Atlanta Center
06:55PM 33.8150 -82.1411 North 449 517 35,000  Level Atlanta Center
06:56PM 33.9419 -82.1208 North 455 524 35,000  Level Atlanta Center
06:57PM 34.0689 -82.0978 North 460 529 35,000  Level Atlanta Center
06:58PM 34.1939 -82.0775 North 460 529 35,000  Level Atlanta Center
06:59PM 34.3208 -82.0569 North 465 535 35,000  Level Atlanta Center
07:00PM 34.4458 -82.0311 10° North 460 529 35,000  Level Atlanta Center
07:01PM 34.5728 -82.0131 North 460 529 35,000  Level Atlanta Center
07:02PM 34.6975 -81.9897 North 460 529 35,000  Level Atlanta Center
07:03PM 34.8222 -81.9667 North 460 529 35,000  Level Atlanta Center
07:04PM 34.9494 -81.9481 North 460 529 35,000  Level Atlanta Center
07:05PM 35.0847 -81.9294 North 460 529 35,000  Level Atlanta Center
07:06PM 35.2119 -81.9239 North 455 524 35,000  Level Atlanta Center
07:07PM 35.3389 -81.9181 North 450 518 35,000  Level Atlanta Center
07:08PM 35.4642 -81.9122 North 450 518 35,000  Level Atlanta Center
07:09PM 35.5892 -81.9064 North 450 518 35,000  Level Atlanta Center
07:10PM 35.7164 -81.9006 North 455 524 35,000  Level Atlanta Center
07:11PM 35.8414 -81.8947 North 455 524 35,000  Level Atlanta Center
07:12PM 35.9539 -81.8867 North 455 524 35,000  Level Atlanta Center
07:13PM 36.0811 -81.8806 North 455 524 35,000  Level Atlanta Center
07:16PM 36.3997 -81.8639 North 450 518 35,000  Level Indianapolis Center
07:17PM 36.5244 -81.8583 North 450 518 35,000  Level Indianapolis Center
07:18PM 36.6500 -81.8522 North 452 520 35,000  Level Indianapolis Center
07:19PM 36.7756 -81.8456 North 453 521 35,000  Level Indianapolis Center
07:20PM 36.9008 -81.8408 North 452 520 35,000  Level Indianapolis Center
07:21PM 37.0467 -81.8331 North 451 519 35,000  Level Indianapolis Center
07:22PM 37.1719 -81.8281 North 451 519 35,000  Level Indianapolis Center
07:23PM 37.2956 -81.8208 North 446 513 35,000 -420 Level Indianapolis Center
07:24PM 37.4219 -81.8158 North 451 519 34,200 -720 Descending Indianapolis Center
07:25PM 37.5453 -81.8092 North 444 511 33,600 -780 Descending Indianapolis Center
07:26PM 37.6669 -81.8044 North 437 503 32,600 -1,080 Descending Indianapolis Center
07:27PM 37.8064 -81.7972 North 431 496 31,400 -840 Descending Indianapolis Center
07:28PM 37.9106 -81.7931 North 429 494 31,000 -300 Descending Indianapolis Center
07:29PM 38.0308 -81.7861 North 432 497 30,800 -1,620 Descending Indianapolis Center
07:30PM 38.1750 -81.7794 North 429 494 27,700 -2,520 Descending Indianapolis Center
07:31PM 38.2889 -81.8150 346° North 423 487 25,700 -1,620 Descending Indianapolis Center
07:32PM 38.4067 -81.8672 341° North 440 506 24,400 -840 Descending Indianapolis Center
07:33PM 38.5300 -81.9214 341° North 461 531 24,000 -420 Descending Indianapolis Center
07:34PM 38.6519 -81.9747 341° North 458 527 23,600 -780 Descending Indianapolis Center
07:35PM 38.7653 -82.0242 341° North 430 495 22,400 -780 Descending Indianapolis Center
07:36PM 38.8739 -82.0717 341° North 412 474 22,000 -240 Descending Indianapolis Center
07:38PM 38.9814 -82.1183 341° North 406 467 22,000 -540 Level Indianapolis Center
07:39PM 39.0947 -82.1619 343° North 422 486 20,900 -1,980 Descending Indianapolis Center
07:40PM 39.2311 -82.2156 343° North 424 488 18,000 -2,640 Descending Indianapolis Center
07:41PM 39.3292 -82.2575 342° North 401 461 15,600 -2,400 Descending Indianapolis Center
07:42PM 39.4314 -82.2978 343° North 383 441 13,200 -2,340 Descending Indianapolis Center
07:43PM 39.5250 -82.3725 328° Northwest 369 425 10,900 -1,680 Descending Indianapolis Center
07:44PM 39.5994 -82.4533 320° Northwest 339 390 9,900 -480 Descending Indianapolis Center
07:45PM 39.6711 -82.5306 320° Northwest 309 356 9,900 -60 Level Indianapolis Center
07:46PM 39.7361 -82.6033 319° Northwest 318 366 9,800 -720 Descending Indianapolis Center
07:47PM 39.8083 -82.6819 320° Northwest 315 362 8,500 -1,380 Descending Indianapolis Center
07:48PM 39.8572 -82.7686 306° West 301 346 7,000 -1,320 Descending Indianapolis Center
07:49PM 39.8903 -82.8675 294° West 293 337 5,900 -900 Descending Indianapolis Center
07:50PM 39.9089 -82.9528 286° West 259 298 5,200 -840 Descending Indianapolis Center
07:51PM 39.9156 -83.0497 275° West 247 284 4,300 -1,080 Descending Indianapolis Center
07:52PM 39.9731 -83.0647 349° North 204 235 3,100 -960 Descending Indianapolis Center
07:53PM 40.0011 -83.0217 50° Northeast 151 174 2,400 -780 Descending Indianapolis Center
07:54PM 39.9978 -82.9631 94° East 153 176 1,500 -720 Descending Indianapolis Center
07:55PM 39.9956 -82.9203 94° East 132 152 1,000 -600 Descending Indianapolis Center